Time;durP1;ratioP1;P1;durP2;ratioP2;P2;SDS_P1;SDS_P2;PMS_P1;PMS_P2;Temp;Humidity;BMP_temperature;BMP_pressure;BME280_temperature;BME280_humidity;BME280_pressure;Samples;Min_cycle;Max_cycle;Signal;HPM_P1;HPM_P2
2022/06/03 00:00:21;;;;;;;8.50;8.00;;;;;;;;;;5033182;28;20504;-61
2022/06/03 00:02:59;;;;;;;10.23;9.63;;;;;;;;;;5033404;28;20052;-61
2022/06/03 00:05:48;;;;;;;9.75;9.15;;;;;;;;;;5027961;28;20057;-61
2022/06/03 00:08:32;;;;;;;9.38;8.77;;;;;;;;;;5036518;28;20061;-61
2022/06/03 00:11:14;;;;;;;8.77;8.20;;;;;;;;;;5030664;28;20550;-60
2022/06/03 00:14:10;;;;;;;10.65;10.00;;;;;;;;;;5034183;28;20446;-61
2022/06/03 00:17:05;;;;;;;8.30;7.80;;;;;;;;;;5034104;28;20017;-61
2022/06/03 00:19:58;;;;;;;8.13;7.63;;;;;;;;;;5031662;28;20045;-61
2022/06/03 00:22:35;;;;;;;8.20;7.70;;;;;;;;;;5031166;28;20423;-61
2022/06/03 00:25:15;;;;;;;7.50;7.00;;;;;;;;;;5031802;28;20037;-61
2022/06/03 00:27:58;;;;;;;7.63;7.13;;;;;;;;;;5032413;28;20057;-60
2022/06/03 00:30:35;;;;;;;7.95;7.45;;;;;;;;;;5033402;28;20500;-61
2022/06/03 00:33:40;;;;;;;9.50;8.90;;;;;;;;;;5032182;28;20049;-60
2022/06/03 00:36:33;;;;;;;10.88;10.20;;;;;;;;;;5031927;28;20068;-60
2022/06/03 00:39:27;;;;;;;9.05;8.45;;;;;;;;;;5030925;28;20036;-59
2022/06/03 00:42:19;;;;;;;11.02;10.35;;;;;;;;;;5029182;28;20583;-59
2022/06/03 00:44:59;;;;;;;9.43;8.82;;;;;;;;;;5030380;28;20063;-59
2022/06/03 00:47:57;;;;;;;11.55;10.85;;;;;;;;;;5031263;28;20033;-59
2022/06/03 00:50:40;;;;;;;11.95;11.25;;;;;;;;;;5016934;28;20450;-59
2022/06/03 00:53:24;;;;;;;10.15;9.55;;;;;;;;;;5031444;28;20081;-59
2022/06/03 00:56:00;;;;;;;8.75;8.20;;;;;;;;;;5034034;28;20025;-59
2022/06/03 00:58:56;;;;;;;9.93;9.32;;;;;;;;;;5031586;28;20043;-60
2022/06/03 01:01:24;;;;;;;11.13;10.43;;;;;;;;;;5035253;28;20112;-60
2022/06/03 01:04:23;;;;;;;13.55;12.75;;;;;;;;;;5031718;28;20463;-59
2022/06/03 01:07:21;;;;;;;9.30;8.70;;;;;;;;;;5029941;28;20053;-60
2022/06/03 01:10:08;;;;;;;8.25;7.75;;;;;;;;;;5030781;28;20063;-60
2022/06/03 01:12:49;;;;;;;10.82;10.18;;;;;;;;;;5032279;28;20028;-59
2022/06/03 01:15:37;;;;;;;9.68;9.07;;;;;;;;;;5028841;28;20435;-59
2022/06/03 01:18:30;;;;;;;8.80;8.23;;;;;;;;;;5032511;28;20422;-59
2022/06/03 01:21:09;;;;;;;7.07;6.57;;;;;;;;;;5028774;28;20447;-60
2022/06/03 01:24:01;;;;;;;6.32;5.93;;;;;;;;;;5030477;28;20029;-60
2022/06/03 01:26:45;;;;;;;6.65;6.05;;;;;;;;;;5029244;28;20029;-60
2022/06/03 01:29:32;;;;;;;6.75;6.25;;;;;;;;;;5030378;28;20123;-60
2022/06/03 01:32:03;;;;;;;6.85;6.35;;;;;;;;;;5035093;28;20430;-60
2022/06/03 01:34:50;;;;;;;7.35;6.85;;;;;;;;;;5032054;28;20800;-60
2022/06/03 01:37:24;;;;;;;6.80;6.30;;;;;;;;;;5031990;28;20042;-60
2022/06/03 01:40:41;;;;;;;7.25;6.75;;;;;;;;;;5031928;28;20028;-60
2022/06/03 01:43:43;;;;;;;6.25;5.85;;;;;;;;;;4986129;28;20049;-60
2022/06/03 01:46:33;;;;;;;7.00;6.50;;;;;;;;;;5034995;28;20431;-60
2022/06/03 01:49:10;;;;;;;6.55;6.13;;;;;;;;;;5030556;28;20132;-60
2022/06/03 01:52:06;;;;;;;6.97;6.47;;;;;;;;;;5031194;28;20041;-60
2022/06/03 01:55:16;;;;;;;6.25;5.85;;;;;;;;;;5035949;28;20040;-60
2022/06/03 01:57:50;;;;;;;7.68;7.18;;;;;;;;;;5033648;28;20125;-60
2022/06/03 02:00:34;;;;;;;7.18;6.18;;;;;;;;;;5034740;28;20041;-61
2022/06/03 02:03:17;;;;;;;5.97;5.57;;;;;;;;;;5032866;28;20022;-61
2022/06/03 02:06:08;;;;;;;5.00;4.60;;;;;;;;;;5029519;28;20099;-60
2022/06/03 02:09:11;;;;;;;5.65;5.25;;;;;;;;;;5028999;28;20044;-60
2022/06/03 02:11:56;;;;;;;5.00;4.60;;;;;;;;;;5033727;28;20091;-60
2022/06/03 02:14:46;;;;;;;5.63;5.22;;;;;;;;;;5037775;28;20041;-60
2022/06/03 02:17:39;;;;;;;6.07;5.68;;;;;;;;;;5033847;28;20029;-60
2022/06/03 02:20:25;;;;;;;5.60;5.20;;;;;;;;;;5033396;28;20231;-60
2022/06/03 02:23:27;;;;;;;6.90;6.40;;;;;;;;;;5036689;28;20033;-60
2022/06/03 02:26:21;;;;;;;5.72;5.32;;;;;;;;;;5032662;28;20118;-60
2022/06/03 02:32:19;;;;;;;6.05;5.65;;;;;;;;;;5036402;28;20022;-61
2022/06/03 02:35:16;;;;;;;5.10;4.70;;;;;;;;;;5038641;28;20029;-61
2022/06/03 02:38:05;;;;;;;5.30;4.90;;;;;;;;;;5032176;28;20033;-61
2022/06/03 02:40:46;;;;;;;5.40;5.00;;;;;;;;;;5034848;28;20051;-61
2022/06/03 02:43:42;;;;;;;5.45;5.05;;;;;;;;;;5040025;28;20491;-61
2022/06/03 02:46:37;;;;;;;5.80;5.40;;;;;;;;;;5035629;28;20033;-60
2022/06/03 02:49:49;;;;;;;5.68;5.28;;;;;;;;;;5037205;28;20040;-60
2022/06/03 02:52:32;;;;;;;4.93;4.53;;;;;;;;;;4991902;28;20048;-60
2022/06/03 02:54:58;;;;;;;5.70;5.30;;;;;;;;;;4994577;28;20037;-60
2022/06/03 02:57:38;;;;;;;6.07;5.68;;;;;;;;;;5022884;28;20460;-59
2022/06/03 03:00:12;;;;;;;5.40;5.00;;;;;;;;;;5015907;28;20030;-61
2022/06/03 03:03:02;;;;;;;6.15;5.75;;;;;;;;;;5033244;28;20110;-60
2022/06/03 03:05:40;;;;;;;6.47;5.97;;;;;;;;;;5036078;28;20040;-61
2022/06/03 03:08:27;;;;;;;6.97;6.35;;;;;;;;;;5031952;28;20162;-60
2022/06/03 03:11:17;;;;;;;6.32;5.93;;;;;;;;;;5032728;28;20039;-61
2022/06/03 03:14:08;;;;;;;7.10;6.60;;;;;;;;;;5037046;28;20318;-60
2022/06/03 03:16:38;;;;;;;6.20;5.80;;;;;;;;;;5029424;28;20036;-61
2022/06/03 03:19:22;;;;;;;6.90;6.40;;;;;;;;;;5020918;28;20413;-61
2022/06/03 03:22:28;;;;;;;6.57;6.10;;;;;;;;;;5033028;28;20100;-61
2022/06/03 03:25:28;;;;;;;7.05;6.55;;;;;;;;;;5032853;28;20485;-60
2022/06/03 03:28:05;;;;;;;6.10;5.70;;;;;;;;;;5032053;28;20032;-61
2022/06/03 03:30:36;;;;;;;6.75;6.25;;;;;;;;;;5035655;28;20044;-60
2022/06/03 03:33:04;;;;;;;5.82;5.43;;;;;;;;;;5031403;28;20037;-60
2022/06/03 03:35:38;;;;;;;7.07;6.57;;;;;;;;;;5033427;28;20037;-61
2022/06/03 03:38:15;;;;;;;6.50;6.00;;;;;;;;;;5036363;28;20040;-61
2022/06/03 03:40:59;;;;;;;6.05;5.65;;;;;;;;;;5033499;28;20044;-61
2022/06/03 03:44:09;;;;;;;5.95;5.55;;;;;;;;;;5034606;28;20036;-60
2022/06/03 03:46:43;;;;;;;6.20;5.80;;;;;;;;;;5036922;28;20116;-61
2022/06/03 03:49:30;;;;;;;7.03;6.53;;;;;;;;;;5033275;28;20043;-60
2022/06/03 03:52:09;;;;;;;7.50;7.00;;;;;;;;;;5031548;28;20104;-60
2022/06/03 03:55:06;;;;;;;7.30;6.80;;;;;;;;;;5035351;28;20037;-60
2022/06/03 03:58:23;;;;;;;7.75;7.25;;;;;;;;;;5032594;28;20091;-60
2022/06/03 04:01:31;;;;;;;7.38;6.88;;;;;;;;;;5030700;28;20029;-60
2022/06/03 04:04:21;;;;;;;7.50;7.00;;;;;;;;;;5034337;28;20037;-60
2022/06/03 04:07:09;;;;;;;7.00;6.50;;;;;;;;;;5032396;28;20038;-60
2022/06/03 04:09:57;;;;;;;5.80;5.40;;;;;;;;;;5029801;28;20037;-60
2022/06/03 04:12:46;;;;;;;6.70;6.20;;;;;;;;;;5033223;28;20060;-61
2022/06/03 04:15:33;;;;;;;6.90;6.40;;;;;;;;;;5033620;28;20051;-61
2022/06/03 04:18:15;;;;;;;8.30;7.80;;;;;;;;;;5032821;28;20495;-61
2022/06/03 04:20:47;;;;;;;9.93;9.32;;;;;;;;;;5034537;28;20032;-61
2022/06/03 04:23:40;;;;;;;6.28;5.88;;;;;;;;;;5033559;28;20052;-60
2022/06/03 04:26:34;;;;;;;7.78;7.28;;;;;;;;;;5034081;28;20033;-60
2022/06/03 04:29:51;;;;;;;5.82;5.43;;;;;;;;;;5031377;28;20026;-60
2022/06/03 04:32:34;;;;;;;5.40;5.00;;;;;;;;;;5015547;28;20463;-61
2022/06/03 04:35:20;;;;;;;5.90;5.38;;;;;;;;;;5033096;28;20089;-60
2022/06/03 04:38:18;;;;;;;7.03;6.53;;;;;;;;;;5037042;28;20025;-61
2022/06/03 04:40:57;;;;;;;6.30;5.80;;;;;;;;;;5035117;28;20108;-61
2022/06/03 04:43:41;;;;;;;5.65;5.25;;;;;;;;;;5035606;28;20036;-60
2022/06/03 04:46:58;;;;;;;5.63;5.22;;;;;;;;;;5034592;28;20034;-61
2022/06/03 04:49:23;;;;;;;6.40;6.00;;;;;;;;;;5032428;28;20718;-61
2022/06/03 04:52:23;;;;;;;6.63;6.13;;;;;;;;;;5031320;28;20029;-61
2022/06/03 04:55:18;;;;;;;6.15;5.75;;;;;;;;;;5033047;28;20026;-61
2022/06/03 04:58:02;;;;;;;6.32;5.93;;;;;;;;;;5032596;28;20071;-61
2022/06/03 05:01:10;;;;;;;8.05;7.55;;;;;;;;;;5031102;28;20037;-62
2022/06/03 05:04:05;;;;;;;5.65;5.25;;;;;;;;;;5031910;28;20040;-62
2022/06/03 05:07:07;;;;;;;5.80;5.40;;;;;;;;;;5032122;28;20371;-62
2022/06/03 05:10:10;;;;;;;6.18;5.78;;;;;;;;;;5030858;28;20842;-61
2022/06/03 05:12:57;;;;;;;5.90;5.50;;;;;;;;;;5031742;28;20527;-59
2022/06/03 05:15:50;;;;;;;5.53;5.13;;;;;;;;;;5033121;28;20037;-62
2022/06/03 05:18:34;;;;;;;6.43;6.03;;;;;;;;;;5032350;28;20100;-61
2022/06/03 05:21:11;;;;;;;6.20;5.80;;;;;;;;;;5032902;28;20037;-61
2022/06/03 05:24:06;;;;;;;6.97;6.47;;;;;;;;;;5030479;28;20037;-62
2022/06/03 05:26:34;;;;;;;6.65;6.15;;;;;;;;;;5034424;28;20037;-63
2022/06/03 05:29:26;;;;;;;6.00;5.60;;;;;;;;;;5030799;28;20021;-63
2022/06/03 05:32:10;;;;;;;6.07;5.65;;;;;;;;;;5031805;28;20045;-63
2022/06/03 05:34:41;;;;;;;6.38;5.88;;;;;;;;;;5033582;28;20562;-62
2022/06/03 05:37:18;;;;;;;6.63;6.13;;;;;;;;;;5033138;28;20028;-61
2022/06/03 05:39:53;;;;;;;5.97;5.57;;;;;;;;;;5029600;28;20029;-62
2022/06/03 05:42:45;;;;;;;5.90;5.50;;;;;;;;;;5014145;28;20361;-62
2022/06/03 05:45:47;;;;;;;6.70;6.20;;;;;;;;;;5031731;28;20112;-63
2022/06/03 05:48:21;;;;;;;6.75;6.25;;;;;;;;;;5031116;28;20056;-61
2022/06/03 05:50:56;;;;;;;7.20;6.70;;;;;;;;;;5031840;28;20371;-61
2022/06/03 05:53:38;;;;;;;6.45;6.05;;;;;;;;;;5029661;28;20033;-61
2022/06/03 05:56:22;;;;;;;7.18;6.68;;;;;;;;;;5030786;28;20033;-63
2022/06/03 05:58:59;;;;;;;7.40;6.90;;;;;;;;;;5031257;28;20034;-62
2022/06/03 06:01:44;;;;;;;9.18;8.57;;;;;;;;;;5028784;28;20068;-62
2022/06/03 06:04:24;;;;;;;12.23;11.52;;;;;;;;;;5032835;28;20037;-61
2022/06/03 06:06:59;;;;;;;14.80;13.98;;;;;;;;;;5028769;28;20029;-62
2022/06/03 06:09:41;;;;;;;15.43;14.52;;;;;;;;;;5030520;28;20034;-62
2022/06/03 06:12:17;;;;;;;22.42;21.23;;;;;;;;;;5029016;28;20048;-61
2022/06/03 06:14:45;;;;;;;22.83;21.63;;;;;;;;;;5027466;28;20043;-61
2022/06/03 06:17:23;;;;;;;26.55;25.15;;;;;;;;;;5028043;28;20033;-61
2022/06/03 06:19:54;;;;;;;28.02;26.52;;;;;;;;;;5031802;28;20558;-62
2022/06/03 06:22:30;;;;;;;25.00;23.70;;;;;;;;;;5033839;28;20307;-63
2022/06/03 06:25:09;;;;;;;23.67;22.38;;;;;;;;;;5032174;28;20691;-62
2022/06/03 06:27:48;;;;;;;24.30;23.00;;;;;;;;;;5029061;28;20525;-63
2022/06/03 06:30:36;;;;;;;24.10;22.83;;;;;;;;;;5029003;28;20378;-63
2022/06/03 06:33:17;;;;;;;24.42;23.13;;;;;;;;;;5029892;28;20570;-62
2022/06/03 06:36:01;;;;;;;;;;;;;;;;;;5032166;28;20543;-62
2022/06/03 06:38:44;;;;;;;20.15;19.05;;;;;;;;;;5032041;28;20043;-61
2022/06/03 06:41:25;;;;;;;17.10;16.15;;;;;;;;;;5031370;28;20060;-62
2022/06/03 06:44:01;;;;;;;17.73;16.73;;;;;;;;;;5031070;28;20052;-62
2022/06/03 06:46:57;;;;;;;12.50;11.75;;;;;;;;;;5025075;28;20044;-61
2022/06/03 06:49:30;;;;;;;9.88;9.27;;;;;;;;;;5028513;28;20083;-63
2022/06/03 06:52:35;;;;;;;10.98;10.32;;;;;;;;;;5028409;28;20029;-63
2022/06/03 06:55:19;;;;;;;11.43;10.73;;;;;;;;;;5026467;28;20511;-63
2022/06/03 06:57:47;;;;;;;12.45;11.75;;;;;;;;;;5030674;28;20036;-63
2022/06/03 07:00:24;;;;;;;14.68;13.88;;;;;;;;;;5035705;28;20041;-63
2022/06/03 07:02:58;;;;;;;14.00;13.20;;;;;;;;;;5034004;28;20038;-62
2022/06/03 07:05:46;;;;;;;12.10;11.40;;;;;;;;;;5030621;28;20033;-62
2022/06/03 07:08:20;;;;;;;14.38;13.57;;;;;;;;;;5035289;28;20202;-60
2022/06/03 07:10:54;;;;;;;13.27;12.48;;;;;;;;;;5034296;28;20022;-63
2022/06/03 07:13:40;;;;;;;16.45;15.55;;;;;;;;;;5032538;28;20042;-62
2022/06/03 07:22:28;;;;;;;18.58;17.58;;;;;;;;;;5030549;28;20091;-64
2022/06/03 07:25:18;;;;;;;18.13;17.02;;;;;;;;;;5038930;28;20660;-63
2022/06/03 07:27:50;;;;;;;15.55;14.65;;;;;;;;;;5034407;28;20041;-62
2022/06/03 07:30:40;;;;;;;18.67;17.65;;;;;;;;;;5034636;28;20033;-62
2022/06/03 07:33:30;;;;;;;15.25;14.35;;;;;;;;;;5037507;28;20037;-63
2022/06/03 07:36:03;;;;;;;15.65;14.75;;;;;;;;;;5036931;28;20037;-63
2022/06/03 07:38:37;;;;;;;18.30;17.30;;;;;;;;;;5034554;28;20064;-63
2022/06/03 07:41:17;;;;;;;17.02;16.02;;;;;;;;;;5035127;28;20024;-63
2022/06/03 07:44:02;;;;;;;13.68;12.88;;;;;;;;;;5030549;28;20529;-63
2022/06/03 07:46:41;;;;;;;18.23;17.23;;;;;;;;;;5032081;28;20072;-63
2022/06/03 07:49:07;;;;;;;18.20;17.20;;;;;;;;;;5033250;28;20033;-63
2022/06/03 07:51:38;;;;;;;16.50;15.60;;;;;;;;;;5030121;28;20112;-63
2022/06/03 07:54:03;;;;;;;16.95;16.02;;;;;;;;;;5032135;28;20332;-61
2022/06/03 07:56:32;;;;;;;20.00;18.90;;;;;;;;;;5033017;28;20025;-62
2022/06/03 07:59:01;;;;;;;17.98;16.98;;;;;;;;;;5036321;28;20025;-62
2022/06/03 08:01:35;;;;;;;16.05;15.10;;;;;;;;;;5031541;28;20510;-62
2022/06/03 08:04:00;;;;;;;14.35;13.45;;;;;;;;;;5030545;28;20049;-61
2022/06/03 08:10:56;;;;;;;16.05;15.15;;;;;;;;;;5036093;28;20438;-62
2022/06/03 08:12:01;;;;;;;14.50;13.70;;;;;;;;;;5033020;28;20037;-60
2022/06/03 08:14:27;;;;;;;18.42;17.42;;;;;;;;;;5026595;28;20458;-59
2022/06/03 08:16:54;;;;;;;17.13;16.13;;;;;;;;;;5030295;28;20021;-59
2022/06/03 08:19:26;;;;;;;17.30;16.33;;;;;;;;;;5033497;28;20029;-60
2022/06/03 08:21:55;;;;;;;16.35;15.45;;;;;;;;;;5034666;28;20668;-59
2022/06/03 08:24:24;;;;;;;19.17;18.10;;;;;;;;;;5032444;28;20147;-59
2022/06/03 08:26:56;;;;;;;20.98;19.88;;;;;;;;;;5034258;28;20036;-59
2022/06/03 08:29:39;;;;;;;18.45;17.45;;;;;;;;;;5033331;28;20029;-59
2022/06/03 08:32:08;;;;;;;24.40;23.10;;;;;;;;;;5031309;28;20186;-62
2022/06/03 08:34:43;;;;;;;21.92;20.75;;;;;;;;;;5033809;28;20394;-61
2022/06/03 08:37:15;;;;;;;20.50;19.40;;;;;;;;;;5032337;28;20029;-62
2022/06/03 08:39:40;;;;;;;26.02;24.63;;;;;;;;;;5032530;28;20030;-62
2022/06/03 08:42:18;;;;;;;35.80;34.00;;;;;;;;;;5038633;28;20033;-61
2022/06/03 08:45:16;;;;;;;32.67;30.98;;;;;;;;;;5029711;28;20090;-62
2022/06/03 08:47:48;;;;;;;33.17;31.42;;;;;;;;;;5032216;28;20036;-59
2022/06/03 08:50:29;;;;;;;30.75;29.15;;;;;;;;;;5034587;28;20025;-59
2022/06/03 08:53:02;;;;;;;29.85;28.25;;;;;;;;;;5020358;28;20065;-60
2022/06/03 08:55:36;;;;;;;18.17;17.17;;;;;;;;;;5031937;28;20033;-60
2022/06/03 08:58:09;;;;;;;30.05;28.50;;;;;;;;;;5032750;28;20480;-60
2022/06/03 09:00:57;;;;;;;37.80;35.88;;;;;;;;;;5017750;28;20033;-59
2022/06/03 09:03:25;;;;;;;41.63;39.53;;;;;;;;;;5030203;28;20033;-59
2022/06/03 09:06:27;;;;;;;38.47;36.47;;;;;;;;;;5029541;28;20055;-60
2022/06/03 09:08:59;;;;;;;31.00;29.38;;;;;;;;;;5033484;28;20112;-60
2022/06/03 09:11:34;;;;;;;34.67;32.90;;;;;;;;;;5030267;28;20030;-60
2022/06/03 09:14:05;;;;;;;35.70;33.90;;;;;;;;;;5030253;28;20418;-60
2022/06/03 09:16:33;;;;;;;36.83;34.92;;;;;;;;;;5028905;28;20044;-61
2022/06/03 09:19:08;;;;;;;39.05;37.05;;;;;;;;;;5031923;28;20030;-60
2022/06/03 09:21:41;;;;;;;39.10;37.10;;;;;;;;;;5030231;28;20037;-60
2022/06/03 09:24:07;;;;;;;40.60;38.50;;;;;;;;;;5034388;28;20032;-60
2022/06/03 09:26:39;;;;;;;38.10;36.17;;;;;;;;;;5033525;28;20372;-59
2022/06/03 09:29:07;;;;;;;41.65;39.55;;;;;;;;;;5032182;28;20315;-59
2022/06/03 09:31:36;;;;;;;48.47;46.00;;;;;;;;;;5030547;28;20029;-61
2022/06/03 09:34:03;;;;;;;55.80;53.00;;;;;;;;;;5032695;28;20038;-60
2022/06/03 09:36:29;;;;;;;55.30;52.53;;;;;;;;;;5031711;28;20033;-59
2022/06/03 09:39:02;;;;;;;57.30;54.45;;;;;;;;;;5032167;28;20030;-59
2022/06/03 09:41:32;;;;;;;53.13;50.45;;;;;;;;;;5032083;28;20356;-59
2022/06/03 09:44:02;;;;;;;73.95;70.28;;;;;;;;;;5031803;28;20068;-62
2022/06/03 09:46:31;;;;;;;;;;;;;;;;;;5033919;28;20040;-60
2022/06/03 09:48:57;;;;;;;64.28;61.08;;;;;;;;;;5029508;28;20002;-60
2022/06/03 09:51:55;;;;;;;51.42;48.83;;;;;;;;;;5032292;28;20040;-60
2022/06/03 09:54:19;;;;;;;125.75;119.55;;;;;;;;;;5032784;28;20036;-60
2022/06/03 09:56:48;;;;;;;59.65;56.65;;;;;;;;;;5032953;28;20017;-59
2022/06/03 09:59:13;;;;;;;150.63;143.20;;;;;;;;;;5027756;28;20029;-60
2022/06/03 10:01:39;;;;;;;99.40;94.45;;;;;;;;;;5031445;28;20150;-60
2022/06/03 10:04:06;;;;;;;97.30;92.50;;;;;;;;;;5036185;28;20036;-60
2022/06/03 10:06:45;;;;;;;112.22;106.70;;;;;;;;;;5034772;28;20359;-60
2022/06/03 10:17:47;;;;;;;;;;;;;;;;;;5033983;28;20048;-60
2022/06/03 10:20:12;;;;;;;262.25;249.43;;;;;;;;;;5032237;28;20343;-60
2022/06/03 10:22:37;;;;;;;252.57;240.10;;;;;;;;;;5034134;28;20116;-62
2022/06/03 10:25:04;;;;;;;199.50;189.48;;;;;;;;;;5034570;28;20033;-63
2022/06/03 10:27:30;;;;;;;109.32;103.72;;;;;;;;;;5035927;28;20088;-62
2022/06/03 10:30:03;;;;;;;213.95;203.18;;;;;;;;;;5033577;28;20057;-60
2022/06/03 10:32:28;;;;;;;275.50;261.83;;;;;;;;;;5036314;28;20120;-61
2022/06/03 10:35:15;;;;;;;99.43;94.35;;;;;;;;;;5033994;28;20124;-62
2022/06/03 10:37:52;;;;;;;122.70;116.47;;;;;;;;;;5037996;28;20124;-62
2022/06/03 10:40:20;;;;;;;90.35;85.72;;;;;;;;;;5037194;28;20957;-62
2022/06/03 10:42:49;;;;;;;78.72;74.70;;;;;;;;;;5039466;28;20044;-62
2022/06/03 10:45:15;;;;;;;96.27;91.47;;;;;;;;;;5036184;28;20036;-61
2022/06/03 10:47:46;;;;;;;124.68;118.32;;;;;;;;;;5032734;28;20288;-62
2022/06/03 10:50:23;;;;;;;97.15;92.20;;;;;;;;;;5034124;28;20033;-61
2022/06/03 11:01:39;;;;;;;104.60;99.25;;;;;;;;;;5033314;28;20036;-60
2022/06/03 11:04:05;;;;;;;89.38;84.88;;;;;;;;;;5035775;28;20033;-61
2022/06/03 11:06:38;;;;;;;89.63;85.13;;;;;;;;;;5033301;28;20029;-61
2022/06/03 11:09:08;;;;;;;77.10;73.20;;;;;;;;;;5033430;28;20033;-60
2022/06/03 11:11:47;;;;;;;130.18;123.68;;;;;;;;;;5032175;28;20112;-61
2022/06/03 11:14:25;;;;;;;96.07;91.25;;;;;;;;;;5034968;28;20041;-60
2022/06/03 11:16:53;;;;;;;113.07;107.45;;;;;;;;;;5035290;28;20053;-61
2022/06/03 11:19:20;;;;;;;67.57;64.18;;;;;;;;;;5035596;28;20547;-60
2022/06/03 11:21:45;;;;;;;113.10;107.38;;;;;;;;;;5031819;28;20028;-60
2022/06/03 11:24:11;;;;;;;97.82;92.95;;;;;;;;;;5033592;28;20037;-60
2022/06/03 11:26:44;;;;;;;134.95;128.25;;;;;;;;;;5036480;28;20874;-60
2022/06/03 11:29:17;;;;;;;173.77;165.18;;;;;;;;;;5033902;28;20041;-60
2022/06/03 11:31:46;;;;;;;143.98;136.80;;;;;;;;;;5032973;28;20043;-60
2022/06/03 11:34:22;;;;;;;141.18;134.13;;;;;;;;;;5034621;28;20175;-61
2022/06/03 11:36:58;;;;;;;167.95;159.57;;;;;;;;;;5031919;28;20115;-61
2022/06/03 11:39:36;;;;;;;164.05;155.82;;;;;;;;;;5036110;28;20466;-60
2022/06/03 11:42:15;;;;;;;86.65;82.32;;;;;;;;;;5034631;28;20392;-61
2022/06/03 11:44:50;;;;;;;107.53;102.13;;;;;;;;;;5032142;28;20026;-61
2022/06/03 11:47:24;;;;;;;114.05;108.35;;;;;;;;;;5035864;28;20037;-60
2022/06/03 11:49:50;;;;;;;121.90;115.75;;;;;;;;;;5034563;28;20037;-61
2022/06/03 11:52:16;;;;;;;116.53;110.72;;;;;;;;;;5034438;28;20036;-61
2022/06/03 11:54:41;;;;;;;123.63;117.28;;;;;;;;;;5033982;28;20499;-63
2022/06/03 11:57:07;;;;;;;142.18;134.95;;;;;;;;;;5035914;28;20040;-60
2022/06/03 11:59:44;;;;;;;115.53;109.82;;;;;;;;;;5033812;28;20086;-60
2022/06/03 12:02:12;;;;;;;108.05;102.63;;;;;;;;;;5034236;28;20029;-60
2022/06/03 12:04:51;;;;;;;107.57;102.22;;;;;;;;;;5033846;28;20040;-61
2022/06/03 12:07:35;;;;;;;101.63;96.57;;;;;;;;;;5030262;28;20044;-60
2022/06/03 12:10:25;;;;;;;243.07;231.07;;;;;;;;;;5035919;28;20044;-60
2022/06/03 12:13:14;;;;;;;291.30;277.02;;;;;;;;;;5032689;28;20052;-60
2022/06/03 12:15:42;;;;;;;166.98;158.65;;;;;;;;;;5032814;28;20025;-60
2022/06/03 12:18:07;;;;;;;283.60;269.67;;;;;;;;;;5032586;28;20101;-60
2022/06/03 12:20:48;;;;;;;288.77;274.67;;;;;;;;;;5031154;28;20120;-60
2022/06/03 12:23:33;;;;;;;315.90;300.40;;;;;;;;;;5032155;28;20363;-60
2022/06/03 12:25:59;;;;;;;329.17;312.85;;;;;;;;;;5028365;28;20087;-59
2022/06/03 12:28:36;;;;;;;332.10;315.65;;;;;;;;;;5031513;28;20037;-60
2022/06/03 12:31:06;;;;;;;331.20;314.77;;;;;;;;;;5034173;28;20159;-60
2022/06/03 12:33:36;;;;;;;282.00;268.05;;;;;;;;;;5033481;28;20036;-60
2022/06/03 12:36:05;;;;;;;312.45;296.90;;;;;;;;;;5031682;28;20037;-61
2022/06/03 12:38:33;;;;;;;293.15;278.75;;;;;;;;;;5035429;28;20064;-60
2022/06/03 12:41:01;;;;;;;268.70;255.52;;;;;;;;;;5034848;28;20116;-60
2022/06/03 12:43:29;;;;;;;269.45;256.30;;;;;;;;;;5034275;28;20028;-60
2022/06/03 12:46:03;;;;;;;247.70;235.52;;;;;;;;;;5032200;28;20455;-60
2022/06/03 12:48:44;;;;;;;321.08;305.15;;;;;;;;;;5031931;28;20040;-60
2022/06/03 12:51:11;;;;;;;278.65;265.08;;;;;;;;;;5031762;28;20037;-60
2022/06/03 12:53:44;;;;;;;332.70;316.05;;;;;;;;;;5031633;28;20033;-60
2022/06/03 12:56:18;;;;;;;136.73;129.95;;;;;;;;;;5032013;28;20609;-60
2022/06/03 12:58:47;;;;;;;302.40;287.50;;;;;;;;;;5030903;28;20040;-60
2022/06/03 13:01:29;;;;;;;301.08;286.10;;;;;;;;;;5029158;28;20029;-60
2022/06/03 13:03:54;;;;;;;233.30;221.77;;;;;;;;;;5031829;28;20148;-61
2022/06/03 13:06:26;;;;;;;266.20;252.90;;;;;;;;;;5027876;28;20033;-60
2022/06/03 13:11:44;;;;;;;162.88;154.77;;;;;;;;;;5033427;28;20025;-60
2022/06/03 13:14:28;;;;;;;103.47;98.28;;;;;;;;;;5027866;28;20030;-60
2022/06/03 13:16:54;;;;;;;230.65;219.23;;;;;;;;;;5036195;28;20108;-60
2022/06/03 13:19:22;;;;;;;197.02;187.35;;;;;;;;;;5036394;28;20120;-60
2022/06/03 13:21:57;;;;;;;230.73;219.32;;;;;;;;;;5034208;28;20471;-60
2022/06/03 13:24:32;;;;;;;184.48;175.38;;;;;;;;;;5029957;28;20037;-60
2022/06/03 13:27:08;;;;;;;95.38;90.68;;;;;;;;;;5032125;28;20416;-61
2022/06/03 13:29:49;;;;;;;179.68;170.63;;;;;;;;;;5032593;28;20344;-60
2022/06/03 13:32:20;;;;;;;276.13;262.38;;;;;;;;;;5034512;28;20048;-60
2022/06/03 13:34:46;;;;;;;358.55;340.25;;;;;;;;;;5034274;28;20048;-60
2022/06/03 13:37:17;;;;;;;263.63;250.45;;;;;;;;;;5028669;28;20025;-60
2022/06/03 13:39:43;;;;;;;225.98;214.68;;;;;;;;;;5030808;28;20128;-60
2022/06/03 13:45:00;;;;;;;289.00;274.50;;;;;;;;;;5029569;28;20151;-62
2022/06/03 13:47:30;;;;;;;252.80;240.27;;;;;;;;;;5031974;28;20037;-62
2022/06/03 13:50:03;;;;;;;245.90;233.70;;;;;;;;;;5024350;28;20048;-61
2022/06/03 13:52:31;;;;;;;281.75;267.75;;;;;;;;;;5034780;28;20037;-61
2022/06/03 13:55:20;;;;;;;256.73;243.98;;;;;;;;;;5025789;28;20942;-61
2022/06/03 13:57:53;;;;;;;205.93;195.90;;;;;;;;;;5031347;28;20355;-61
2022/06/03 14:00:25;;;;;;;318.27;302.33;;;;;;;;;;5029757;28;20537;-61
2022/06/03 14:03:05;;;;;;;279.15;265.50;;;;;;;;;;5025508;28;20034;-61
2022/06/03 14:05:38;;;;;;;;;;;;;;;;;;5027322;28;20541;-61
2022/06/03 14:08:26;;;;;;;269.75;256.55;;;;;;;;;;5029722;28;19920;-62
2022/06/03 14:11:03;;;;;;;204.15;194.18;;;;;;;;;;5030529;28;20529;-61
2022/06/03 14:13:54;;;;;;;106.95;101.63;;;;;;;;;;5034827;28;20033;-62
2022/06/03 14:16:38;;;;;;;125.63;119.38;;;;;;;;;;5033260;28;20621;-61
2022/06/03 14:19:09;;;;;;;63.63;60.40;;;;;;;;;;5033077;28;20934;-62
2022/06/03 14:21:37;;;;;;;62.97;59.80;;;;;;;;;;5032695;28;20037;-59
2022/06/03 14:24:24;;;;;;;61.85;58.38;;;;;;;;;;5036064;28;20094;-60
2022/06/03 14:26:58;;;;;;;80.65;76.60;;;;;;;;;;5032125;28;20044;-61
2022/06/03 14:29:29;;;;;;;85.20;80.97;;;;;;;;;;5032864;28;20062;-61
2022/06/03 14:32:00;;;;;;;72.13;68.53;;;;;;;;;;5031923;28;20044;-59
2022/06/03 14:34:28;;;;;;;53.13;50.40;;;;;;;;;;5030450;28;20493;-59
2022/06/03 14:36:55;;;;;;;51.83;49.17;;;;;;;;;;5028610;28;20497;-59
2022/06/03 14:39:30;;;;;;;42.08;39.92;;;;;;;;;;5033614;28;20029;-59
2022/06/03 14:42:04;;;;;;;41.30;39.10;;;;;;;;;;5032785;28;20113;-61
2022/06/03 14:44:31;;;;;;;53.50;50.80;;;;;;;;;;5030799;28;20068;-59
2022/06/03 14:47:01;;;;;;;33.97;32.22;;;;;;;;;;5030751;28;20045;-59
2022/06/03 14:49:43;;;;;;;91.32;86.82;;;;;;;;;;5031972;28;20029;-61
2022/06/03 14:52:17;;;;;;;133.82;127.25;;;;;;;;;;5029482;28;20526;-59
2022/06/03 14:54:50;;;;;;;132.20;125.57;;;;;;;;;;5033003;28;20105;-59
2022/06/03 14:57:45;;;;;;;138.95;132.10;;;;;;;;;;5030230;28;20029;-61
2022/06/03 15:00:20;;;;;;;144.68;137.57;;;;;;;;;;5024212;28;20049;-59
2022/06/03 15:02:56;;;;;;;125.88;119.70;;;;;;;;;;5029712;28;20120;-61
2022/06/03 15:05:25;;;;;;;109.93;104.43;;;;;;;;;;5026197;28;20041;-63
2022/06/03 15:08:15;;;;;;;94.15;89.53;;;;;;;;;;5028798;28;20124;-61
2022/06/03 15:10:49;;;;;;;82.90;78.78;;;;;;;;;;5026421;28;20067;-62
2022/06/03 15:13:23;;;;;;;75.25;71.50;;;;;;;;;;5028176;28;20091;-59
2022/06/03 15:15:49;;;;;;;46.40;44.05;;;;;;;;;;5028892;28;20037;-59
2022/06/03 15:18:18;;;;;;;39.38;37.38;;;;;;;;;;5030370;28;20025;-59
2022/06/03 15:20:58;;;;;;;30.60;29.00;;;;;;;;;;5029377;28;20025;-61
2022/06/03 15:23:26;;;;;;;;;;;;;;;;;;5029909;28;20600;-61
2022/06/03 15:25:54;;;;;;;24.77;23.48;;;;;;;;;;5029702;28;19923;-59
2022/06/03 15:28:24;;;;;;;21.10;19.92;;;;;;;;;;5031859;28;20083;-60
2022/06/03 15:30:56;;;;;;;21.80;20.60;;;;;;;;;;5023895;28;20529;-59
2022/06/03 15:33:28;;;;;;;17.50;16.50;;;;;;;;;;5023424;28;20045;-60
2022/06/03 15:36:01;;;;;;;17.55;16.55;;;;;;;;;;5027727;28;20033;-62
2022/06/03 15:38:36;;;;;;;18.42;17.42;;;;;;;;;;5027549;28;20040;-59
2022/06/03 15:41:06;;;;;;;20.60;19.50;;;;;;;;;;5026038;28;20045;-62
2022/06/03 15:43:44;;;;;;;17.83;16.83;;;;;;;;;;5028160;28;20033;-62
2022/06/03 15:46:29;;;;;;;17.60;16.60;;;;;;;;;;5027179;28;20060;-59
2022/06/03 15:49:17;;;;;;;19.00;17.90;;;;;;;;;;5028551;28;20052;-62
2022/06/03 15:51:46;;;;;;;15.73;14.82;;;;;;;;;;5028282;28;20084;-62
2022/06/03 15:54:24;;;;;;;14.95;14.05;;;;;;;;;;5027712;28;20041;-62
2022/06/03 15:57:23;;;;;;;15.52;14.63;;;;;;;;;;5030807;28;20036;-62
2022/06/03 16:00:07;;;;;;;15.25;14.32;;;;;;;;;;5031858;28;20036;-61
2022/06/03 16:02:47;;;;;;;15.27;14.38;;;;;;;;;;5030337;28;20570;-62
2022/06/03 16:05:21;;;;;;;13.98;13.18;;;;;;;;;;5024350;28;20041;-59